Time;durP1;ratioP1;P1;durP2;ratioP2;P2;SDS_P1;SDS_P2;PMS_P1;PMS_P2;Temp;Humidity;BMP_temperature;BMP_pressure;BME280_temperature;BME280_humidity;BME280_pressure;Samples;Min_cycle;Max_cycle;Signal;HPM_P1;HPM_P2
2022/12/14 00:01:13;;;;;;;;;60.00;49.25;;;;;1.08;100.00;99899.66;5024638;28;45411;-78
2022/12/14 00:03:39;;;;;;;;;60.00;46.75;;;;;1.12;100.00;99895.78;5025078;28;45868;-78
2022/12/14 00:06:28;;;;;;;;;58.00;46.25;;;;;1.21;100.00;99905.00;5027739;28;45673;-78
2022/12/14 00:08:56;;;;;;;;;62.25;44.50;;;;;1.22;100.00;99901.34;5041785;28;45378;-79
2022/12/14 00:11:22;;;;;;;;;57.75;46.75;;;;;1.14;100.00;99895.69;5027254;28;45430;-78
2022/12/14 00:13:58;;;;;;;;;66.50;50.25;;;;;1.20;100.00;99903.28;5024899;28;45507;-78
2022/12/14 00:16:27;;;;;;;;;59.00;46.50;;;;;1.13;100.00;99900.19;5027384;28;47112;-79
2022/12/14 00:18:54;;;;;;;;;53.25;46.00;;;;;1.05;100.00;99897.19;5031924;28;45276;-79
2022/12/14 00:21:20;;;;;;;;;59.25;47.50;;;;;1.21;100.00;99907.66;5025451;28;46858;-78
2022/12/14 00:23:47;;;;;;;;;59.75;45.25;;;;;1.25;100.00;99911.81;5024622;28;45588;-79
2022/12/14 00:26:13;;;;;;;;;63.50;45.75;;;;;1.14;100.00;99895.69;5044212;28;48224;-78
2022/12/14 00:28:40;;;;;;;;;56.50;46.25;;;;;1.12;100.00;99902.97;5026241;28;45495;-78
2022/12/14 00:31:06;;;;;;;;;63.75;47.00;;;;;1.08;100.00;99890.78;5044615;28;45513;-78
2022/12/14 00:33:32;;;;;;;;;64.75;49.25;;;;;1.05;100.00;99882.97;5031393;28;45423;-78
2022/12/14 00:35:57;;;;;;;;;68.25;46.75;;;;;1.12;100.00;99889.59;5027700;28;45653;-78
2022/12/14 00:38:23;;;;;;;;;53.00;45.50;;;;;1.20;100.00;99894.38;5030762;28;45616;-79
2022/12/14 00:40:48;;;;;;;;;53.50;45.50;;;;;1.15;100.00;99870.66;5024790;28;46077;-79
2022/12/14 00:43:14;;;;;;;;;64.00;44.50;;;;;1.17;100.00;99869.56;5025774;28;45281;-78
2022/12/14 00:45:43;;;;;;;;;58.50;46.50;;;;;1.16;100.00;99877.72;5022462;28;47263;-78
2022/12/14 00:48:09;;;;;;;;;58.50;46.00;;;;;1.20;100.00;99873.84;5028859;28;45571;-79
2022/12/14 00:50:34;;;;;;;;;55.75;42.50;;;;;1.15;100.00;99865.31;5026625;28;45833;-78
2022/12/14 00:53:00;;;;;;;;;64.75;45.75;;;;;1.10;100.00;99856.72;5025216;28;45563;-79
2022/12/14 00:55:25;;;;;;;;;58.25;42.75;;;;;1.08;100.00;99874.72;5024743;28;48918;-78
2022/12/14 00:57:51;;;;;;;;;60.75;40.75;;;;;1.11;100.00;99886.06;5028542;28;45387;-78
2022/12/14 01:00:16;;;;;;;;;49.50;42.50;;;;;1.01;100.00;99873.47;5025083;28;45363;-79
2022/12/14 01:02:41;;;;;;;;;54.00;42.75;;;;;1.04;100.00;99876.75;5026249;28;45323;-78
2022/12/14 01:05:07;;;;;;;;;61.25;42.75;;;;;1.10;100.00;99872.78;5026420;28;45384;-78
2022/12/14 01:07:32;;;;;;;;;50.75;42.00;;;;;1.09;100.00;99869.28;5047642;28;46078;-78
2022/12/14 01:09:58;;;;;;;;;51.50;41.25;;;;;1.12;100.00;99865.50;5027974;28;45252;-79
2022/12/14 01:12:23;;;;;;;;;61.25;45.00;;;;;1.21;100.00;99875.56;5027907;28;45283;-77
2022/12/14 01:14:48;;;;;;;;;49.00;42.75;;;;;1.13;100.00;99872.56;5037849;28;46957;-77
2022/12/14 01:17:14;;;;;;;;;37.50;34.50;;;;;1.19;100.00;99893.53;5025368;28;45392;-77
2022/12/14 01:19:39;;;;;;;;;57.25;43.50;;;;;1.12;100.00;99889.59;5027861;28;45342;-78
2022/12/14 01:22:04;;;;;;;;;53.25;39.50;;;;;1.24;100.00;99901.25;5043234;28;45541;-77
2022/12/14 01:24:30;;;;;;;;;38.75;35.75;;;;;1.15;100.00;99898.25;5040590;28;48874;-77
2022/12/14 01:26:55;;;;;;;;;47.25;39.00;;;;;1.14;100.00;99911.75;5027051;28;45443;-77
2022/12/14 01:29:20;;;;;;;;;44.25;35.00;;;;;1.15;100.00;99897.41;5037840;28;45821;-78
2022/12/14 01:31:46;;;;;;;;;49.50;37.50;;;;;1.20;100.00;99905.09;5029342;28;45429;-77
2022/12/14 01:34:11;;;;;;;;;46.25;39.25;;;;;1.16;100.00;99902.66;5028208;28;45551;-77
2022/12/14 01:36:38;;;;;;;;;51.50;40.50;;;;;1.19;100.00;99893.53;5043866;28;45508;-78
2022/12/14 01:39:13;;;;;;;;;44.75;36.75;;;;;1.30;100.00;99900.81;5037045;28;45486;-78
2022/12/14 01:41:46;;;;;;;;;47.00;37.75;;;;;1.38;100.00;99893.94;5040624;28;45628;-77
2022/12/14 01:44:11;;;;;;;;;43.00;35.75;;;;;1.45;100.00;99895.19;5031853;28;48556;-77
2022/12/14 01:46:40;;;;;;;;;39.50;35.25;;;;;1.49;100.00;99903.84;5030090;28;45504;-79
2022/12/14 01:49:14;;;;;;;;;44.00;38.50;;;;;1.48;100.00;99912.84;5024900;28;45427;-78
2022/12/14 01:51:46;;;;;;;;;47.00;39.25;;;;;1.50;100.00;99917.13;5025668;28;45661;-78
2022/12/14 01:54:13;;;;;;;;;43.25;38.75;;;;;1.50;100.00;99910.91;5005925;28;48520;-77
2022/12/14 01:56:43;;;;;;;;;42.75;33.00;;;;;1.45;100.00;99927.31;5028597;28;45446;-77
2022/12/14 01:59:16;;;;;;;;;44.75;36.50;;;;;1.34;100.00;99918.34;5023263;28;45350;-78
2022/12/14 02:01:42;;;;;;;;;56.50;44.50;;;;;1.37;100.00;99908.28;5030766;28;45879;-77
2022/12/14 02:04:10;;;;;;;;;43.50;35.25;;;;;1.46;100.00;99906.75;5033687;28;48370;-78
2022/12/14 02:06:38;;;;;;;;;46.25;42.75;;;;;1.43;100.00;99921.22;5029648;28;45517;-79
2022/12/14 02:09:10;;;;;;;;;52.75;40.75;;;;;1.43;100.00;99910.50;5022534;28;45500;-79
2022/12/14 02:11:51;;;;;;;;;49.50;42.00;;;;;1.38;100.00;99918.03;5028970;28;45533;-78
2022/12/14 02:14:16;;;;;;;;;58.00;40.25;;;;;1.37;100.00;99907.41;5041027;28;46608;-78
2022/12/14 02:16:42;;;;;;;;;41.75;35.00;;;;;1.42;100.00;99894.56;5038044;28;45494;-77
2022/12/14 02:19:07;;;;;;;;;46.00;39.00;;;;;1.40;100.00;99891.97;5030771;28;45231;-78
2022/12/14 02:22:22;;;;;;;;;48.25;42.00;;;;;1.30;100.00;99888.28;5032965;28;45144;-78
2022/12/14 02:25:08;;;;;;;;;38.50;36.75;;;;;1.37;100.00;99869.94;5027210;28;45403;-78
2022/12/14 02:27:50;;;;;;;;;45.75;39.75;;;;;1.31;100.00;99833.78;5034833;28;45353;-77
2022/12/14 02:30:21;;;;;;;;;43.00;38.50;;;;;1.26;100.00;99857.34;5020884;28;45528;-77
2022/12/14 02:32:59;;;;;;;;;44.00;33.00;;;;;1.26;100.00;99838.59;5023053;28;45512;-78
2022/12/14 02:35:27;;;;;;;;;44.50;37.50;;;;;1.27;100.00;99826.94;5030444;28;47992;-78
2022/12/14 02:38:08;;;;;;;;;53.50;43.75;;;;;1.25;100.00;99818.16;5038197;28;45876;-78
2022/12/14 02:40:58;;;;;;;;;52.00;38.25;;;;;1.11;100.00;99805.81;5032465;28;45418;-77
2022/12/14 02:43:48;;;;;;;;;41.50;36.75;;;;;1.05;100.00;99824.13;5035565;28;45525;-78
2022/12/14 02:46:38;;;;;;;;;44.50;38.00;;;;;0.98;100.00;99845.09;5036504;28;47352;-78
2022/12/14 02:49:11;;;;;;;;;46.75;42.25;;;;;0.90;100.00;99838.59;5023187;28;45416;-78
2022/12/14 02:51:46;;;;;;;;;58.00;44.50;;;;;0.87;100.00;99823.66;5026842;28;45475;-78
2022/12/14 02:54:19;;;;;;;;;36.75;30.50;;;;;0.85;100.00;99808.66;5038334;28;45561;-78
2022/12/14 02:56:54;;;;;;;;;45.75;38.50;;;;;0.86;100.00;99805.88;5039860;28;46711;-77
2022/12/14 02:59:21;;;;;;;;;43.25;35.25;;;;;0.87;100.00;99806.75;5021612;28;45286;-78
2022/12/14 03:01:49;;;;;;;;;45.50;41.00;;;;;0.76;100.00;99799.47;5027018;28;45453;-77
2022/12/14 03:04:15;;;;;;;;;51.75;38.25;;;;;0.69;100.00;99785.69;5021942;28;45547;-79
2022/12/14 03:07:20;;;;;;;;;45.50;35.00;;;;;0.71;100.00;99782.91;5027525;28;45484;-77
2022/12/14 03:09:46;;;;;;;;;49.25;36.50;;;;;0.67;100.00;99794.78;5040318;28;45465;-78
2022/12/14 03:12:16;;;;;;;;;45.75;31.50;;;;;0.64;100.00;99795.88;5028100;28;45528;-78
2022/12/14 03:14:49;;;;;;;;;51.50;41.00;;;;;0.64;100.00;99806.56;5023244;28;45224;-78
2022/12/14 03:17:22;;;;;;;;;45.25;40.75;;;;;0.66;100.00;99809.09;5027717;28;48097;-78
2022/12/14 03:20:10;;;;;;;;;54.50;42.00;;;;;0.55;100.00;99801.84;5031248;28;45347;-78
2022/12/14 03:22:48;;;;;;;;;60.25;45.50;;;;;0.55;100.00;99807.19;5034559;28;45350;-78
2022/12/14 03:25:18;;;;;;;;;45.00;40.50;;;;;0.60;100.00;99798.84;5022834;28;45216;-78
2022/12/14 03:27:50;;;;;;;;;49.50;37.50;;;;;0.67;100.00;99800.97;5034551;28;46230;-78
2022/12/14 03:30:17;;;;;;;;;48.00;37.25;;;;;0.68;100.00;99796.50;5028779;28;46245;-78
2022/12/14 03:32:55;;;;;;;;;52.75;41.25;;;;;0.76;100.00;99805.69;5025303;28;45250;-78
2022/12/14 03:35:26;;;;;;;;;39.50;37.25;;;;;0.85;100.00;99808.66;5031943;28;45549;-79
2022/12/14 03:37:54;;;;;;;;;45.25;38.25;;;;;0.85;100.00;99797.97;5040942;28;47439;-78
2022/12/14 03:40:29;;;;;;;;;52.50;43.00;;;;;0.87;100.00;99801.41;5032293;28;45394;-78
2022/12/14 03:43:08;;;;;;;;;41.75;36.75;;;;;0.87;100.00;99802.25;5027814;28;45371;-77
2022/12/14 03:46:10;;;;;;;;;61.75;43.00;;;;;0.78;100.00;99805.56;5026083;28;45404;-78
2022/12/14 03:48:52;;;;;;;;;49.00;35.75;;;;;0.81;100.00;99802.66;5013471;28;47371;-78
2022/12/14 03:51:29;;;;;;;;;41.75;39.00;;;;;0.88;100.00;99795.91;5024621;28;45311;-78
2022/12/14 03:54:05;;;;;;;;;47.25;38.75;;;;;0.95;100.00;99789.16;5031871;28;45482;-78
2022/12/14 03:56:35;;;;;;;;;50.50;41.75;;;;;0.98;100.00;99783.59;5026745;28;45519;-78
2022/12/14 03:59:12;;;;;;;;;57.50;43.25;;;;;0.88;100.00;99782.53;5037257;28;46780;-78
2022/12/14 04:02:14;;;;;;;;;55.00;45.00;;;;;0.61;100.00;99773.84;5025858;28;45429;-78
2022/12/14 04:05:32;;;;;;;;;48.25;40.50;;;;;0.73;100.00;99772.97;5007431;28;45405;-78
2022/12/14 04:08:06;;;;;;;;;49.25;43.00;;;;;0.83;100.00;99779.34;5026547;28;46833;-79
2022/12/14 04:19:17;;;;;;;;;56.00;42.50;;;;;0.88;100.00;99754.97;5034187;28;45427;-78
2022/12/14 04:21:50;;;;;;;;;47.50;40.75;;;;;0.80;100.00;99752.00;5030520;28;46462;-78
2022/12/14 04:27:43;;;;;;;;;43.25;38.00;;;;;0.97;100.00;99751.59;5036148;28;45474;-78
2022/12/14 04:30:11;;;;;;;;;46.75;40.00;;;;;0.96;100.00;99748.06;5024174;28;45448;-78
2022/12/14 04:32:39;;;;;;;;;46.50;37.50;;;;;0.99;100.00;99742.50;5025755;28;45736;-78
2022/12/14 04:35:18;;;;;;;;;52.75;43.25;;;;;0.99;100.00;99741.66;5025429;28;45212;-78
2022/12/14 04:37:49;;;;;;;;;38.50;36.75;;;;;0.96;100.00;99745.41;5050916;28;45489;-78
2022/12/14 04:40:41;;;;;;;;;48.50;39.50;;;;;0.89;100.00;99756.66;5035126;28;45458;-79
2022/12/14 04:43:12;;;;;;;;;59.25;46.00;;;;;0.90;100.00;99764.56;5034241;28;46615;-78
2022/12/14 04:45:47;;;;;;;;;47.25;41.50;;;;;0.98;100.00;99775.56;5027489;28;45331;-78
2022/12/14 04:48:46;;;;;;;;;41.50;35.25;;;;;0.92;100.00;99773.34;5025889;28;45373;-78
2022/12/14 04:51:24;;;;;;;;;53.25;41.25;;;;;0.87;100.00;99753.25;5030544;28;45272;-78
2022/12/14 04:53:58;;;;;;;;;41.50;37.50;;;;;0.94;100.00;99765.22;5030629;28;47329;-78
2022/12/14 04:56:32;;;;;;;;;45.50;42.25;;;;;0.97;100.00;99765.84;5033029;28;45369;-80
2022/12/14 04:58:58;;;;;;;;;42.25;34.50;;;;;1.03;100.00;99785.91;5032177;28;46196;-79
2022/12/14 05:01:39;;;;;;;;;46.00;36.75;;;;;1.03;100.00;99785.91;5041201;28;45520;-79
2022/12/14 05:04:16;;;;;;;;;37.75;34.00;;;;;1.04;100.00;99787.63;5028610;28;45571;-79
2022/12/14 05:07:16;;;;;;;;;50.50;38.50;;;;;1.07;100.00;99787.41;5029075;28;45449;-78
2022/12/14 05:10:22;;;;;;;;;39.25;36.25;;;;;1.02;100.00;99785.06;5024547;28;45457;-79
2022/12/14 05:12:53;;;;;;;;;53.25;42.50;;;;;1.05;100.00;99774.16;5026786;28;45421;-78
2022/12/14 05:15:24;;;;;;;;;42.25;40.00;;;;;1.02;100.00;99765.53;5041704;28;45325;-78
2022/12/14 05:17:51;;;;;;;;;47.25;40.25;;;;;0.97;100.00;99754.28;5031546;28;45434;-78
2022/12/14 05:20:19;;;;;;;;;46.25;37.25;;;;;1.02;100.00;99752.97;5034350;28;45299;-78
2022/12/14 05:22:44;;;;;;;;;43.25;34.75;;;;;1.01;100.00;99759.31;5030805;28;45286;-79
2022/12/14 05:25:11;;;;;;;;;36.50;30.00;;;;;0.97;100.00;99762.31;5040816;28;46279;-78
2022/12/14 05:27:37;;;;;;;;;44.75;35.50;;;;;0.97;100.00;99747.13;5032632;28;45586;-80
2022/12/14 05:30:05;;;;;;;;;49.00;36.25;;;;;1.00;100.00;99743.38;5025158;28;45699;-78
2022/12/14 05:32:31;;;;;;;;;37.00;35.00;;;;;1.05;100.00;99743.88;5032031;28;45593;-79
2022/12/14 05:34:57;;;;;;;;;39.50;34.00;;;;;1.11;100.00;99751.44;5024056;28;45516;-77
2022/12/14 05:37:22;;;;;;;;;44.00;34.50;;;;;1.14;100.00;99751.22;5041850;28;45340;-78
2022/12/14 05:39:48;;;;;;;;;57.50;39.50;;;;;1.12;100.00;99756.69;5035633;28;45243;-79
2022/12/14 05:42:13;;;;;;;;;50.50;42.00;;;;;1.03;100.00;99767.19;5041244;28;45593;-79
2022/12/14 05:44:38;;;;;;;;;50.00;41.75;;;;;0.99;100.00;99763.06;5042307;28;48024;-79
2022/12/14 05:47:04;;;;;;;;;52.75;44.25;;;;;0.96;100.00;99757.91;5031151;28;45263;-76
2022/12/14 05:49:30;;;;;;;;;56.50;43.25;;;;;0.98;100.00;99761.34;5024244;28;45309;-80
2022/12/14 05:51:55;;;;;;;;;50.00;44.75;;;;;1.02;100.00;99768.19;5029993;28;45499;-78
2022/12/14 05:54:21;;;;;;;;;50.00;39.75;;;;;1.11;100.00;99772.84;5024100;28;46274;-81
2022/12/14 05:56:46;;;;;;;;;52.25;43.25;;;;;1.08;100.00;99778.44;5036807;28;45793;-78
2022/12/14 05:59:14;;;;;;;;;41.50;39.75;;;;;1.02;100.00;99794.94;5033903;28;45372;-81
2022/12/14 06:01:43;;;;;;;;;57.25;44.50;;;;;1.05;100.00;99789.34;5026958;28;45637;-78
2022/12/14 06:04:14;;;;;;;;;39.00;34.50;;;;;1.01;100.00;99793.22;5022330;28;46258;-76
2022/12/14 06:06:39;;;;;;;;;46.75;40.50;;;;;1.03;100.00;99788.59;5032376;28;45395;-78
2022/12/14 06:09:06;;;;;;;;;44.75;38.75;;;;;1.14;100.00;99791.34;5023569;28;45350;-77
2022/12/14 06:11:35;;;;;;;;;56.00;40.75;;;;;1.21;100.00;99792.63;5040457;28;45322;-77
2022/12/14 06:14:01;;;;;;;;;34.50;31.50;;;;;1.18;100.00;99795.50;5023693;28;45289;-77
2022/12/14 06:16:27;;;;;;;;;42.75;38.25;;;;;1.20;100.00;99779.34;5034788;28;45344;-80
2022/12/14 06:18:57;;;;;;;;;52.00;41.50;;;;;1.31;100.00;99792.81;5029361;28;45535;-78
2022/12/14 06:21:25;;;;;;;;;54.25;41.50;;;;;1.26;100.00;99805.66;5027017;28;45514;-80
2022/12/14 06:23:51;;;;;;;;;40.50;37.50;;;;;1.22;100.00;99801.50;5024603;28;46259;-77
2022/12/14 06:26:17;;;;;;;;;45.50;39.75;;;;;1.19;100.00;99778.50;5027680;28;45476;-78
2022/12/14 06:28:43;;;;;;;;;48.00;35.75;;;;;1.33;100.00;99793.53;5030813;28;45445;-80
2022/12/14 06:31:18;;;;;;;;;48.00;39.75;;;;;1.36;100.00;99793.31;5038536;28;45476;-80
2022/12/14 06:33:44;;;;;;;;;46.50;39.00;;;;;1.33;100.00;99789.03;5021611;28;47198;-77
2022/12/14 06:36:23;;;;;;;;;44.00;38.00;;;;;1.37;100.00;99795.88;5023743;28;47153;-79
2022/12/14 06:38:53;;;;;;;;;41.50;38.25;;;;;1.37;100.00;99798.56;5030158;28;45241;-77
2022/12/14 06:41:20;;;;;;;;;59.75;39.75;;;;;1.40;100.00;99798.31;5022873;28;45580;-80
2022/12/14 06:43:46;;;;;;;;;52.00;41.50;;;;;1.40;100.00;99784.94;5021628;28;46662;-77
2022/12/14 06:46:13;;;;;;;;;45.25;39.00;;;;;1.41;100.00;99791.13;5022174;28;45266;-79
2022/12/14 06:48:39;;;;;;;;;36.00;35.00;;;;;1.28;100.00;99799.22;5023114;28;45516;-78
2022/12/14 06:51:05;;;;;;;;;53.00;42.00;;;;;1.36;100.00;99804.88;5025210;28;45382;-78
2022/12/14 06:53:31;;;;;;;;;48.50;40.00;;;;;1.33;100.00;99794.38;5022454;28;45368;-78
2022/12/14 06:56:14;;;;;;;;;53.00;43.00;;;;;1.35;100.00;99803.16;5033247;28;45419;-79
2022/12/14 06:58:40;;;;;;;;;48.25;42.50;;;;;1.33;100.00;99799.72;5032994;28;45476;-80
2022/12/14 07:01:08;;;;;;;;;49.00;40.75;;;;;1.25;100.00;99807.47;5037568;28;45451;-79
2022/12/14 07:03:34;;;;;;;;;43.50;39.00;;;;;1.05;100.00;99803.56;5023038;28;48678;-78
2022/12/14 07:06:01;;;;;;;;;51.50;42.00;;;;;0.95;100.00;99807.03;5024790;28;45344;-78
2022/12/14 07:08:28;;;;;;;;;50.50;43.50;;;;;0.98;100.00;99828.19;5032270;28;45615;-78
2022/12/14 07:10:54;;;;;;;;;55.50;42.75;;;;;0.98;100.00;99826.38;5033379;28;45226;-78
2022/12/14 07:13:20;;;;;;;;;48.75;42.00;;;;;0.98;100.00;99820.19;5022062;28;46284;-75
2022/12/14 07:15:53;;;;;;;;;55.50;42.25;;;;;1.07;100.00;99836.44;5031686;28;45300;-79
2022/12/14 07:18:19;;;;;;;;;43.75;39.75;;;;;1.16;100.00;99837.59;5024082;28;45230;-78
2022/12/14 07:21:05;;;;;;;;;57.75;44.25;;;;;1.13;100.00;99841.31;5030555;28;45478;-78
2022/12/14 07:23:32;;;;;;;;;49.00;42.75;;;;;1.17;100.00;99847.28;5023346;28;47667;-80
2022/12/14 07:26:03;;;;;;;;;55.75;33.00;;;;;1.07;100.00;99862.31;5029389;28;45313;-76
2022/12/14 07:28:29;;;;;;;;;43.00;40.75;;;;;1.11;100.00;99851.28;5029087;28;45433;-78
2022/12/14 07:30:55;;;;;;;;;64.50;42.00;;;;;1.13;100.00;99844.00;5033757;28;45285;-78
2022/12/14 07:33:21;;;;;;;;;47.75;42.50;;;;;1.23;100.00;99879.00;5028215;28;47162;-78
2022/12/14 07:35:46;;;;;;;;;45.25;40.25;;;;;1.21;100.00;99875.56;5022994;28;45589;-78
2022/12/14 07:38:12;;;;;;;;;54.75;42.25;;;;;1.14;100.00;99875.16;5030039;28;45342;-78
2022/12/14 07:40:37;;;;;;;;;55.50;45.00;;;;;1.15;100.00;99876.00;5023359;28;45398;-76
2022/12/14 07:43:03;;;;;;;;;35.75;18.50;;;;;1.17;100.00;99884.75;5030628;28;46145;-77
2022/12/14 07:45:29;;;;;;;;;58.00;46.25;;;;;1.08;100.00;99874.72;5021616;28;45305;-78
2022/12/14 07:47:54;;;;;;;;;54.00;43.75;;;;;1.06;100.00;99888.22;5022321;28;45462;-78
2022/12/14 07:50:20;;;;;;;;;54.00;42.00;;;;;1.02;100.00;99888.56;5035549;28;45472;-77
2022/12/14 07:52:45;;;;;;;;;53.75;47.50;;;;;1.04;100.00;99892.81;5023868;28;45835;-80
2022/12/14 07:55:10;;;;;;;;;42.75;39.00;;;;;1.02;100.00;99881.34;5034402;28;45285;-80
2022/12/14 07:57:36;;;;;;;;;66.25;49.50;;;;;1.02;100.00;99880.53;5036651;28;45358;-77
2022/12/14 08:00:02;;;;;;;;;57.50;46.25;;;;;0.98;100.00;99881.69;5022259;28;45473;-79
2022/12/14 08:02:27;;;;;;;;;61.50;45.50;;;;;1.03;100.00;99887.56;5030077;28;46824;-77
2022/12/14 08:04:53;;;;;;;;;52.25;43.25;;;;;0.94;100.00;99872.19;5028581;28;45253;-82
2022/12/14 08:07:18;;;;;;;;;61.00;47.00;;;;;0.99;100.00;99886.06;5035464;28;45328;-77
2022/12/14 08:09:43;;;;;;;;;58.00;45.00;;;;;1.00;100.00;99880.63;5042162;28;45481;-79
2022/12/14 08:12:09;;;;;;;;;45.00;37.00;;;;;1.15;100.00;99887.56;5030870;28;45566;-77
2022/12/14 08:14:34;;;;;;;;;46.25;39.50;;;;;1.26;100.00;99884.09;5030453;28;45311;-75
2022/12/14 08:16:59;;;;;;;;;58.75;43.75;;;;;1.38;100.00;99893.94;5031534;28;45316;-77
2022/12/14 08:19:25;;;;;;;;;46.50;39.00;;;;;1.39;100.00;99895.63;5035978;28;45203;-78
2022/12/14 08:21:50;;;;;;;;;62.25;45.50;;;;;1.41;100.00;99890.16;5032930;28;46416;-77
2022/12/14 08:24:15;;;;;;;;;53.50;42.75;;;;;1.41;100.00;99893.69;5031492;28;46230;-77
2022/12/14 08:26:41;;;;;;;;;43.25;38.75;;;;;1.47;100.00;99887.88;5032729;28;45402;-77
2022/12/14 08:29:06;;;;;;;;;49.50;43.75;;;;;1.41;100.00;99883.00;5029938;28;45170;-74
2022/12/14 08:31:32;;;;;;;;;50.25;42.00;;;;;1.48;100.00;99886.94;5031836;28;47161;-75
2022/12/14 08:33:59;;;;;;;;;35.25;33.50;;;;;1.59;100.00;99885.28;5034770;28;45679;-77
2022/12/14 08:36:29;;;;;;;;;48.50;41.25;;;;;1.67;100.00;99893.63;5026032;28;45380;-75
2022/12/14 08:38:56;;;;;;;;;53.00;43.50;;;;;1.70;100.00;99888.03;5024568;28;45277;-75
2022/12/14 08:41:22;;;;;;;;;48.50;40.50;;;;;1.69;100.00;99911.25;5024501;28;45786;-77
2022/12/14 08:43:53;;;;;;;;;54.25;40.25;;;;;1.53;100.00;99890.13;5036948;28;45400;-76
2022/12/14 08:46:19;;;;;;;;;61.50;45.75;;;;;1.58;100.00;99892.47;5029946;28;45328;-77
2022/12/14 08:48:45;;;;;;;;;51.50;38.25;;;;;1.46;100.00;99888.84;5025326;28;46186;-77
2022/12/14 08:51:11;;;;;;;;;49.00;41.00;;;;;1.50;100.00;99908.25;5027402;28;45467;-77
2022/12/14 08:53:37;;;;;;;;;67.25;49.00;;;;;1.59;100.00;99906.72;5024545;28;45363;-76
2022/12/14 08:56:08;;;;;;;;;55.50;42.75;;;;;1.73;100.00;99909.22;5027116;28;45374;-76
2022/12/14 08:58:34;;;;;;;;;58.50;45.75;;;;;1.81;100.00;99906.84;5033075;28;45602;-77
2022/12/14 09:01:04;;;;;;;;;51.25;43.50;;;;;1.88;100.00;99910.78;5032206;28;47746;-76
2022/12/14 09:03:30;;;;;;;;;51.75;40.25;;;;;1.85;100.00;99930.59;5024995;28;45435;-75
2022/12/14 09:05:56;;;;;;;;;55.00;43.00;;;;;1.94;100.00;99926.38;5026144;28;45473;-76
2022/12/14 09:08:21;;;;;;;;;43.00;39.25;;;;;1.80;100.00;99910.50;5034073;28;45481;-77
2022/12/14 09:10:50;;;;;;;;;59.00;48.00;;;;;1.97;100.00;99914.59;5037244;28;45596;-76
2022/12/14 09:13:17;;;;;;;;;53.50;44.25;;;;;1.94;100.00;99919.22;5028686;28;45259;-77
2022/12/14 09:15:42;;;;;;;;;53.50;45.25;;;;;1.92;100.00;99899.72;5025847;28;45303;-77
2022/12/14 09:18:08;;;;;;;;;61.00;44.25;;;;;2.02;100.00;99924.00;5029127;28;45421;-76
2022/12/14 09:20:33;;;;;;;;;53.00;43.25;;;;;1.88;100.00;99930.38;5037773;28;45424;-76
2022/12/14 09:22:58;;;;;;;;;64.75;48.25;;;;;1.94;100.00;99932.59;5032722;28;45474;-76
2022/12/14 09:25:25;;;;;;;;;61.75;50.50;;;;;1.87;100.00;99941.22;5024252;28;45322;-76
2022/12/14 09:27:50;;;;;;;;;63.00;49.50;;;;;1.84;100.00;99950.31;5040138;28;45441;-76
2022/12/14 09:30:16;;;;;;;;;54.50;41.25;;;;;2.00;100.00;99951.88;5024229;28;46158;-76
2022/12/14 09:32:43;;;;;;;;;59.25;44.00;;;;;2.20;100.00;99965.47;5032562;28;45409;-77
2022/12/14 09:35:08;;;;;;;;;55.75;41.50;;;;;2.40;100.00;99960.47;5039511;28;45321;-76
2022/12/14 09:37:34;;;;;;;;;66.50;48.25;;;;;2.34;100.00;99965.31;5034242;28;45561;-76
2022/12/14 09:39:59;;;;;;;;;60.25;44.00;;;;;2.31;100.00;99968.22;5028328;28;46127;-75
2022/12/14 09:42:54;;;;;;;;;64.50;46.50;;;;;2.35;100.00;99976.88;5026149;28;45208;-76
2022/12/14 09:45:47;;;;;;;;;60.00;45.75;;;;;2.40;100.00;99972.03;5026581;28;45425;-77
2022/12/14 09:48:21;;;;;;;;;58.50;48.25;;;;;2.54;100.00;99976.38;5030839;28;45465;-76
2022/12/14 09:50:49;;;;;;;;;64.00;44.75;;;;;2.42;100.00;99974.59;5035686;28;46699;-75
2022/12/14 09:53:16;;;;;;;;;54.00;43.75;;;;;2.42;100.00;99955.81;5030605;28;45472;-75
2022/12/14 09:55:45;;;;;;;;;47.25;36.50;;;;;2.44;100.00;99967.28;5039333;28;45415;-76
2022/12/14 09:58:31;;;;;;;;;66.25;49.00;;;;;2.20;100.00;99970.84;5033326;28;45365;-76
2022/12/14 10:01:23;;;;;;;;;81.25;61.25;;;;;2.17;100.00;99970.22;5033957;28;46619;-75
2022/12/14 10:04:18;;;;;;;;;60.25;50.50;;;;;2.23;100.00;99965.25;5034690;28;45497;-75
2022/12/14 10:07:19;;;;;;;;;63.75;52.75;;;;;2.33;100.00;99968.13;5023927;28;45546;-77
2022/12/14 10:09:59;;;;;;;;;62.50;48.50;;;;;2.38;100.00;99970.44;5031372;28;45387;-78
2022/12/14 10:12:55;;;;;;;;;66.25;51.00;;;;;2.25;100.00;99981.25;5023591;28;45909;-77
2022/12/14 10:15:47;;;;;;;;;64.25;50.25;;;;;2.16;100.00;99971.19;5031809;28;45362;-77
2022/12/14 10:18:38;;;;;;;;;57.25;48.25;;;;;2.11;100.00;99976.91;5029066;28;45412;-77
2022/12/14 10:21:11;;;;;;;;;56.25;41.25;;;;;2.25;100.00;99982.09;5024473;28;45256;-76
2022/12/14 10:23:40;;;;;;;;;57.25;43.25;;;;;2.45;100.00;99983.28;5030745;28;46325;-76
2022/12/14 10:26:15;;;;;;;;;62.25;47.00;;;;;2.63;100.00;99976.50;5026400;28;45519;-76
2022/12/14 10:28:57;;;;;;;;;66.75;47.50;;;;;2.71;100.00;99968.72;5031302;28;45277;-77
2022/12/14 10:31:39;;;;;;;;;59.00;45.50;;;;;2.76;100.00;99970.22;5024734;28;45449;-76
2022/12/14 10:34:17;;;;;;;;;57.50;47.00;;;;;2.50;100.00;99969.50;5029541;28;45458;-76
2022/12/14 10:36:52;;;;;;;;;56.50;48.00;;;;;2.55;100.00;99964.66;5034748;28;45294;-76
2022/12/14 10:39:44;;;;;;;;;61.25;43.50;;;;;2.60;100.00;99979.44;5028938;28;45347;-77
2022/12/14 10:42:38;;;;;;;;;59.25;47.50;;;;;2.59;100.00;99971.50;5030555;28;45311;-75
2022/12/14 10:45:28;;;;;;;;;67.00;49.00;;;;;2.56;100.00;99987.81;5024220;28;45542;-77
2022/12/14 10:48:12;;;;;;;;;66.50;48.50;;;;;2.48;100.00;99977.69;5024883;28;45388;-74
2022/12/14 10:50:44;;;;;;;;;65.00;52.25;;;;;2.21;100.00;99980.59;5025929;28;45464;-76
2022/12/14 10:53:16;;;;;;;;;66.75;53.00;;;;;2.22;100.00;99984.13;5039771;28;45528;-76
2022/12/14 10:55:44;;;;;;;;;65.50;49.50;;;;;2.28;100.00;99981.00;5026093;28;45531;-76
2022/12/14 10:58:10;;;;;;;;;55.25;45.25;;;;;2.29;100.00;99983.56;5031914;28;45394;-76
2022/12/14 11:00:36;;;;;;;;;68.25;51.25;;;;;2.41;100.00;99983.63;5027847;28;45316;-76
2022/12/14 11:03:03;;;;;;;;;69.00;53.75;;;;;2.48;100.00;99982.19;5030375;28;45378;-76
2022/12/14 11:06:03;;;;;;;;;68.25;54.50;;;;;2.48;100.00;99998.28;5031431;28;47650;-74
2022/12/14 11:08:46;;;;;;;;;61.00;45.50;;;;;2.54;100.00;99993.31;5029927;28;45386;-76
2022/12/14 11:11:21;;;;;;;;;58.75;47.50;;;;;2.67;100.00;99996.75;5022786;28;45430;-75
2022/12/14 11:13:52;;;;;;;;;61.00;49.75;;;;;2.72;100.00;99981.16;5025153;28;45586;-76
2022/12/14 11:16:22;;;;;;;;;60.50;47.25;;;;;2.85;100.00;99983.75;5022311;28;45563;-75
2022/12/14 11:19:00;;;;;;;;;63.00;47.25;;;;;2.90;100.00;99981.59;5031761;28;45974;-75
2022/12/14 11:21:32;;;;;;;;;63.50;45.00;;;;;2.78;100.00;99984.38;5022936;28;45525;-77
2022/12/14 11:23:57;;;;;;;;;60.00;45.25;;;;;2.81;100.00;99997.53;5027097;28;45498;-77
2022/12/14 11:26:29;;;;;;;;;58.75;43.50;;;;;2.71;100.00;99984.81;5025177;28;46498;-76
2022/12/14 11:28:59;;;;;;;;;62.25;46.75;;;;;2.52;100.00;99972.94;5038099;28;45239;-76
2022/12/14 11:31:27;;;;;;;;;63.25;42.25;;;;;2.70;100.00;99977.75;5035122;28;45193;-77
2022/12/14 11:33:55;;;;;;;;;68.00;51.75;;;;;2.69;100.00;99983.25;5035226;28;45615;-76
2022/12/14 11:36:23;;;;;;;;;68.25;49.00;;;;;2.58;100.00;100005.50;5021609;28;45336;-76
2022/12/14 11:39:18;;;;;;;;;63.00;48.25;;;;;2.54;100.00;99989.78;5028461;28;45469;-78
2022/12/14 11:42:06;;;;;;;;;74.00;52.25;;;;;2.55;100.00;99988.81;5044832;28;45520;-75
2022/12/14 11:44:34;;;;;;;;;63.50;49.50;;;;;2.66;100.00;100008.47;5024234;28;45449;-77
2022/12/14 11:47:05;;;;;;;;;67.75;51.00;;;;;2.73;100.00;100008.84;5036877;28;47138;-77
2022/12/14 11:49:42;;;;;;;;;67.50;49.75;;;;;2.82;100.00;99996.56;5026328;28;45516;-77